AKQ weather

Wakefield Municipal Airport
Wakefield, Virginia, United States

Public forecast

Using degrees Fahrenheit for public forecast. Weather courtesy of forecast.io.

Current aviation weather report (METAR) for Wakefield Municipal Airport

Retrieved 2019/11/21 22:54 UTC (25 minutes ago):

KAKQ 212254Z AUTO 00000KT 8SM CLR 08/04 A3018 RMK AO2 SLP222 T00780044

Closest aviation forecast (TAF) to Wakefield Municipal Airport

Closest forecast is Felker Army Air Field, 20.7 nm (38.4 km) ENE. Retrieved 2019/11/21 19:03 UTC (4 hours ago):

TAF TAF KFAF 211900Z 2119/2301 VRB06KT 9999 SCT180 QNH3009INS BECMG 2205/2206 21006KT 9999 BKN110 WS020/24030KT QNH3007INS BECMG 2211/2212 24009KT 9999 BKN030 WS020/27030KT QNH2997INS TEMPO 2215/2219 9000 -SHRA BKN020 BECMG 2219/2220 27009KT 9999 SCT008 BKN015 WS020/29030KT QNH2991INS BECMG 2223/2300 VRB06KT 9999 BKN010 QNH2998INS TX14/2217Z TN08/2200Z LAST NO AMDS AFT 2204 NEXT 2311